עמוד ראשי
METAR-TAF:

METAR-TAF

שדות תעופה :

Oruro, בוליביה

קו רוחב: 17-58S, קו אורך: 067-04W, גובה: 3072מטר

תצפית מזג אוויר נוכחית

הדו"ח נערך לפני 15 שעות ו 19דקות, בשעה 20:00 UTC
רוח 7קשר מכיוון צפון
טמפרטורת 20 צלסיוס
לחות 53%
לחץ 1031 hPa
ראות 10 קילומטר או יותר
מעט עננים בגובה 2000רגל
עננים פזורים בגובה 20000רגל

METAR: SLOR 112000Z 36007KT 9999 FEW020 SCT200 20/10 Q1031

זמן: 07:19 (11:19 UTC)


TAF: חסר

תצפיות ותחזיות מזג אוויר לגבי יותר מ- 4,000 שדות תעופה ברחבי העולם. דוחות METAR ו- TAF.

התחנות הזמינות מסומנות בנקודות צהובות ואדומות על גבי המפה.

העבר את העכבר לנקודה הצבעונית על מנת לראות את שם התחנה.

לאחר מכן, לחץ כדי לראות את תוכן ואת תחזיות מזג האוויר.

כדי לשנות את המפה: לחץ על הכפתורים הירוקים עם הפלוס השחור כדי להתקרב; על הכפתור הירוק עם המקף כדי להתרחק; או בחיצים הירוקים למפות סמוכות.


METAR-TAF: